Cacilhas — VRUA8 — position and weather

sailwx.info

Track history (hours):
 
Tides and Currents Weather Stations Pressure Air Temp Water Temp Dewpoint Dewpoint Depression Visibility Wind Speed Wind Dir Waves Ship Positions

Cacilhas

Last reported at 2015-Mar-02 12:34 UTC. Time now 2015-Mar-02 12:52 UTC.
Position N 22°17' E 114°09'.

Length 29 m; draft 1.6 m.

Type: High speed craft. MMSI: 477092000.

Date/timePositionNaut miles runAvg speedWind from/ knotsBaromVisibWave heightAir tempDewpointWater temp
2015-Mar-02 12:34N 22°17' E 114°09'6 2.8
2015-Mar-02 10:18N 22°15' E 114°03'6 8.5
2015-Mar-02 09:33N 22°17' E 114°09'3323.6
2015-Mar-02 08:09N 22°12' E 113°34'1525.7
2015-Mar-02 07:33N 22°12' E 113°50'1918.6
2015-Mar-02 06:33N 22°17' E 114°09'3316.0
2015-Mar-02 04:29N 22°12' E 113°34'3336.4
2015-Mar-02 03:34N 22°17' E 114°09'1616.1
2015-Mar-02 02:33N 22°11' E 113°53'1817.0
2015-Mar-02 01:30N 22°12' E 113°34'3335.0
2015-Mar-02 00:33N 22°17' E 114°09'1717.5
2015-Mar-01 23:33N 22°11' E 113°51'17 2.2
2015-Mar-01 15:33N 22°17' E 114°09'3314.5
2015-Mar-01 13:15N 22°12' E 113°34'1723.6
2015-Mar-01 12:33N 22°12' E 113°51'1717.3
2015-Mar-01 11:34N 22°17' E 114°09'3322.5
2015-Mar-01 10:05N 22°12' E 113°34'1732.9
2015-Mar-01 09:33N 22°12' E 113°52'1716.6
2015-Mar-01 08:34N 22°17' E 114°09'3333.2
2015-Mar-01 07:33N 22°12' E 113°34'1818.1
2015-Mar-01 06:32N 22°12' E 113°53'1615.8
2015-Mar-01 05:33N 22°17' E 114°09'1918.6
2015-Mar-01 04:34N 22°11' E 113°50'1515.3
2015-Mar-01 03:34N 22°11' E 113°34'3333.1
2015-Mar-01 02:33N 22°17' E 114°09'1817.2
2015-Mar-01 01:32N 22°11' E 113°51'1616.6
2015-Mar-01 00:33N 22°11' E 113°34'3333.3
2015-Feb-28 23:33N 22°17' E 114°09'1717.4
2015-Feb-28 22:34N 22°11' E 113°52'1711.7
2015-Feb-28 21:08N 22°12' E 113°34'1525.8
2015-Feb-28 20:33N 22°12' E 113°50'1919.1
2015-Feb-28 19:34N 22°17' E 114°09'3313.5
2015-Feb-28 17:05N 22°12' E 113°34'1529.2
2015-Feb-28 16:34N 22°12' E 113°50'1818.5
2015-Feb-28 15:34N 22°17' E 114°09'3322.3
2015-Feb-28 14:04N 22°12' E 113°34'1733.8
2015-Feb-28 13:33N 22°12' E 113°52'1515.2
2015-Feb-28 12:33N 22°17' E 114°07'3230.4
2015-Feb-28 11:31N 22°12' E 113°34'1617.2
2015-Feb-28 10:34N 22°11' E 113°51'1717.4
2015-Feb-28 09:34N 22°17' E 114°09'3323.0
2015-Feb-28 08:07N 22°12' E 113°34'1629.5
2015-Feb-28 07:34N 22°12' E 113°51'1717.0
2015-Feb-28 06:34N 22°17' E 114°09'3316.3
2015-Feb-28 04:33N 22°12' E 113°34'3333.6
2015-Feb-28 03:33N 22°17' E 114°09'2019.8
2015-Feb-28 02:33N 22°11' E 113°49'1413.9
2015-Feb-28 01:32N 22°12' E 113°34'3334.3
2015-Feb-28 00:33N 22°17' E 114°09'1918.8
2015-Feb-27 23:33N 22°11' E 113°50'1514.5
2015-Feb-27 22:31N 22°12' E 113°34'0 0.0
2015-Feb-27 21:34N 22°12' E 113°34'15 2.4
2015-Feb-27 15:34N 22°12' E 113°49'1919.1
2015-Feb-27 14:33N 22°17' E 114°09'0 0.2
2015-Feb-27 13:34N 22°17' E 114°09'18 9.0
2015-Feb-27 11:33N 22°12' E 113°50'1818.2
2015-Feb-27 10:33N 22°17' E 114°09'1818.2
2015-Feb-27 09:33N 22°11' E 113°51'1615.7
2015-Feb-27 08:33N 22°12' E 113°34'3333.2
2015-Feb-27 07:33N 22°17' E 114°09'1918.8
2015-Feb-27 06:34N 22°11' E 113°50'1 0.4
2015-Feb-27 04:33N 22°11' E 113°51'1716.9
2015-Feb-27 03:34N 22°17' E 114°08'3221.4
2015-Feb-27 02:03N 22°12' E 113°34'1734.5
2015-Feb-27 01:33N 22°12' E 113°52'1615.6
2015-Feb-27 00:33N 22°17' E 114°08'3222.3
2015-Feb-26 23:07N 22°12' E 113°34'0 0.0
2015-Feb-26 22:21N 22°12' E 113°34'0 0.0
2015-Feb-26 21:20N 22°12' E 113°34'0 0.0
2015-Feb-26 19:12N 22°12' E 113°34'0 0.3
2015-Feb-26 18:28N 22°12' E 113°34'3336.6
2015-Feb-26 17:34N 22°17' E 114°09'1717.3
2015-Feb-26 16:33N 22°11' E 113°52'1716.8
2015-Feb-26 15:33N 22°12' E 113°34'3333.3
2015-Feb-26 14:33N 22°17' E 114°09'1717.3
2015-Feb-26 13:33N 22°11' E 113°51'1716.7
2015-Feb-26 12:33N 22°12' E 113°34'3333.3
2015-Feb-26 11:33N 22°17' E 114°09'1818.5
2015-Feb-26 10:33N 22°11' E 113°50'1615.5
2015-Feb-26 09:33N 22°12' E 113°34'3333.0
2015-Feb-26 08:33N 22°17' E 114°09'0 0.0
2015-Feb-26 07:33N 22°17' E 114°09'0 0.0
2015-Feb-26 06:33N 22°17' E 114°09'0 0.0
2015-Feb-26 05:33N 22°17' E 114°09'0 0.1
2015-Feb-26 04:34N 22°17' E 114°09'3322.3
2015-Feb-26 03:04N 22°12' E 113°34'1936.3
2015-Feb-26 02:33N 22°12' E 113°54'1515.2
2015-Feb-26 01:33N 22°17' E 114°09'3333.4
2015-Feb-26 00:33N 22°12' E 113°34'1717.3
2015-Feb-25 23:33N 22°12' E 113°52'1716.6
2015-Feb-25 22:33N 22°17' E 114°09'0 0.0
2015-Feb-25 21:33N 22°17' E 114°09'0 0.0
2015-Feb-25 20:33N 22°17' E 114°09'0 0.0
2015-Feb-25 19:33N 22°17' E 114°09'0 0.0
2015-Feb-25 18:33N 22°17' E 114°09'7 6.7
2015-Feb-25 17:33N 22°14' E 114°03'2711.6
2015-Feb-25 15:13N 22°12' E 113°34'2738.9
2015-Feb-25 14:31N 22°14' E 114°02'7 7.3
2015-Feb-25 13:33N 22°17' E 114°09'2726.8
2015-Feb-25 12:33N 22°11' E 113°41'2 1.2
2015-Feb-25 10:33N 22°11' E 113°39'2928.8
2015-Feb-25 09:33N 22°17' E 114°09'2828.5
2015-Feb-25 08:34N 22°11' E 113°39'5 5.1
2015-Feb-25 07:33N 22°12' E 113°34'3333.7
2015-Feb-25 06:33N 22°17' E 114°09'1412.5
2015-Feb-25 05:27N 22°12' E 113°55'2014.9
2015-Feb-25 04:06N 22°12' E 113°34'3037.7
2015-Feb-25 03:19N 22°17' E 114°05'3 4.5
2015-Feb-25 02:33N 22°17' E 114°09'2625.8
2015-Feb-25 01:33N 22°11' E 113°42'8 7.7
2015-Feb-25 00:33N 22°11' E 113°34'3333.2
2015-Feb-24 23:33N 22°17' E 114°09'0 0.0
2015-Feb-24 22:33N 22°17' E 114°09'0 0.0
2015-Feb-24 21:33N 22°17' E 114°09'0 0.0
2015-Feb-24 20:33N 22°17' E 114°09'0 0.0
2015-Feb-24 19:33N 22°17' E 114°09'0 0.0
2015-Feb-24 18:33N 22°17' E 114°09'1412.2
2015-Feb-24 17:25N 22°12' E 113°55'20 7.0
2015-Feb-24 14:33N 22°11' E 113°34'3333.2
2015-Feb-24 13:33N 22°17' E 114°09'2726.9
2015-Feb-24 12:33N 22°11' E 113°41'7 6.3
2015-Feb-24 11:28N 22°12' E 113°34'7 8.0
2015-Feb-24 10:33N 22°11' E 113°41'2626.3
2015-Feb-24 09:33N 22°17' E 114°09'1412.4
2015-Feb-24 08:25N 22°12' E 113°55'2019.0
2015-Feb-24 07:23N 22°12' E 113°34'3036.2
2015-Feb-24 06:33N 22°17' E 114°06'11 9.2
2015-Feb-24 05:19N 22°12' E 113°55'14 7.7
2015-Feb-24 03:34N 22°12' E 113°40'2727.2
2015-Feb-24 02:33N 22°17' E 114°09'2827.9
2015-Feb-24 01:34N 22°11' E 113°40'1 0.7
2015-Feb-24 00:34N 22°11' E 113°40'2827.9
2015-Feb-23 23:34N 22°17' E 114°09'0 0.0
2015-Feb-23 22:33N 22°17' E 114°09'0 0.0
2015-Feb-23 21:33N 22°17' E 114°09'0 0.0
2015-Feb-23 20:33N 22°17' E 114°09'0 0.0
2015-Feb-23 19:33N 22°17' E 114°09'0 0.0
2015-Feb-23 18:33N 22°17' E 114°09'2726.8
2015-Feb-23 17:33N 22°11' E 113°41'2 1.7
2015-Feb-23 16:33N 22°11' E 113°39'2828.2
2015-Feb-23 15:33N 22°17' E 114°09'2625.8
2015-Feb-23 14:33N 22°11' E 113°42'7 6.5
2015-Feb-23 13:33N 22°11' E 113°35'3232.3
2015-Feb-23 12:33N 22°17' E 114°09'2424.0
2015-Feb-23 11:34N 22°11' E 113°44'10 8.9
2015-Feb-23 10:29N 22°12' E 113°34'0 0.3
2015-Feb-23 09:33N 22°12' E 113°34'3333.3
2015-Feb-23 08:33N 22°17' E 114°09'1817.8
2015-Feb-23 07:33N 22°11' E 113°51'1616.0
2015-Feb-23 06:33N 22°12' E 113°34'3333.2
2015-Feb-23 05:33N 22°17' E 114°09'0 0.1
2015-Feb-23 04:34N 22°17' E 114°09'3331.8
2015-Feb-23 03:31N 22°12' E 113°34'2824.1
2015-Feb-23 02:20N 22°15' E 114°04'3 4.2
2015-Feb-23 01:34N 22°17' E 114°07'3130.1
2015-Feb-23 00:31N 22°12' E 113°34'1818.9
2015-Feb-22 23:33N 22°12' E 113°54'1515.6
2015-Feb-22 22:33N 22°17' E 114°09'0 0.0
2015-Feb-22 21:33N 22°17' E 114°09'0 0.0
2015-Feb-22 20:33N 22°17' E 114°09'0 0.0
2015-Feb-22 19:34N 22°17' E 114°09'0 0.1
2015-Feb-22 18:34N 22°17' E 114°09'3331.6
2015-Feb-22 17:30N 22°12' E 113°34'1717.6
2015-Feb-22 16:34N 22°12' E 113°52'1716.9
2015-Feb-22 15:33N 22°17' E 114°09'3322.5
2015-Feb-22 14:05N 22°12' E 113°34'2035.5
2015-Feb-22 13:31N 22°12' E 113°55'1313.9
2015-Feb-22 12:34N 22°17' E 114°09'3323.7
2015-Feb-22 11:10N 22°12' E 113°34'2635.7
2015-Feb-22 10:26N 22°14' E 114°02'4 5.1
2015-Feb-22 09:34N 22°17' E 114°06'3023.2
2015-Feb-22 08:15N 22°12' E 113°34'2633.0
2015-Feb-22 07:28N 22°14' E 114°02'7 7.6
2015-Feb-22 06:34N 22°17' E 114°08'18 9.2
2015-Feb-22 04:34N 22°12' E 113°49'1919.3
2015-Feb-22 03:33N 22°17' E 114°09'2424.4
2015-Feb-22 02:34N 22°11' E 113°44'8 8.1
2015-Feb-22 01:33N 22°11' E 113°35'1414.3
2015-Feb-22 00:33N 22°12' E 113°50'1918.5
2015-Feb-21 23:33N 22°17' E 114°09'2424.2
2015-Feb-21 22:33N 22°11' E 113°44'5 2.5
2015-Feb-21 20:33N 22°12' E 113°50'1919.0
2015-Feb-21 19:34N 22°17' E 114°09'3310.9
2015-Feb-21 16:31N 22°12' E 113°34'3334.4
2015-Feb-21 15:33N 22°17' E 114°09'2020.4
2015-Feb-21 14:33N 22°11' E 113°48'13 9.3
2015-Feb-21 13:07N 22°12' E 113°34'2638.5
2015-Feb-21 12:27N 22°14' E 114°02'8 8.5
2015-Feb-21 11:34N 22°17' E 114°09'3329.3
2015-Feb-21 10:26N 22°12' E 113°34'2625.8
2015-Feb-21 09:24N 22°14' E 114°02'3 3.6
2015-Feb-21 08:33N 22°16' E 114°05'2924.1
2015-Feb-21 07:21N 22°12' E 113°34'2937.2
2015-Feb-21 06:34N 22°16' E 114°05'4 4.0
2015-Feb-21 05:34N 22°17' E 114°09'20 9.9
2015-Feb-21 03:34N 22°12' E 113°49'2019.9
2015-Feb-21 02:33N 22°17' E 114°09'3231.6
2015-Feb-21 01:33N 22°11' E 113°35'7 7.1
2015-Feb-21 00:33N 22°12' E 113°43'2524.8
2015-Feb-20 23:33N 22°17' E 114°09'0 0.0
2015-Feb-20 22:33N 22°17' E 114°09'0 0.0
2015-Feb-20 21:33N 22°17' E 114°09'0 0.0
2015-Feb-20 20:33N 22°17' E 114°09'0 0.1
2015-Feb-20 19:33N 22°17' E 114°09'0 0.1
2015-Feb-20 18:33N 22°17' E 114°09'1717.1
2015-Feb-20 17:32N 22°11' E 113°52'1716.9
2015-Feb-20 16:33N 22°12' E 113°34'3333.6
2015-Feb-20 15:33N 22°17' E 114°09'2120.6
2015-Feb-20 14:34N 22°11' E 113°48'13 9.8
2015-Feb-20 13:12N 22°12' E 113°34'  
Track history (hours):
 
Tides and Currents Weather Stations Pressure Air Temp Water Temp Dewpoint Dewpoint Depression Visibility Wind Speed Wind Dir Waves Ship Positions

Cacilhas

Last reported at 2015-Mar-02 12:34 UTC. Time now 2015-Mar-02 12:52 UTC.
Position N 22°17' E 114°09'.

Length 29 m; draft 1.6 m.

Type: High speed craft. MMSI: 477092000.

Date/timePositionNaut miles runAvg speedWind from/ knotsBaromVisibWave heightAir tempDewpointWater temp
2015-Mar-02 12:34N 22°17' E 114°09'6 2.8
2015-Mar-02 10:18N 22°15' E 114°03'6 8.5
2015-Mar-02 09:33N 22°17' E 114°09'3323.6
2015-Mar-02 08:09N 22°12' E 113°34'1525.7
2015-Mar-02 07:33N 22°12' E 113°50'1918.6
2015-Mar-02 06:33N 22°17' E 114°09'3316.0
2015-Mar-02 04:29N 22°12' E 113°34'3336.4
2015-Mar-02 03:34N 22°17' E 114°09'1616.1
2015-Mar-02 02:33N 22°11' E 113°53'1817.0
2015-Mar-02 01:30N 22°12' E 113°34'3335.0
2015-Mar-02 00:33N 22°17' E 114°09'1717.5
2015-Mar-01 23:33N 22°11' E 113°51'17 2.2
2015-Mar-01 15:33N 22°17' E 114°09'3314.5
2015-Mar-01 13:15N 22°12' E 113°34'1723.6
2015-Mar-01 12:33N 22°12' E 113°51'1717.3
2015-Mar-01 11:34N 22°17' E 114°09'3322.5
2015-Mar-01 10:05N 22°12' E 113°34'1732.9
2015-Mar-01 09:33N 22°12' E 113°52'1716.6
2015-Mar-01 08:34N 22°17' E 114°09'3333.2
2015-Mar-01 07:33N 22°12' E 113°34'1818.1
2015-Mar-01 06:32N 22°12' E 113°53'1615.8
2015-Mar-01 05:33N 22°17' E 114°09'1918.6
2015-Mar-01 04:34N 22°11' E 113°50'1515.3
2015-Mar-01 03:34N 22°11' E 113°34'3333.1
2015-Mar-01 02:33N 22°17' E 114°09'1817.2
2015-Mar-01 01:32N 22°11' E 113°51'1616.6
2015-Mar-01 00:33N 22°11' E 113°34'3333.3
2015-Feb-28 23:33N 22°17' E 114°09'1717.4
2015-Feb-28 22:34N 22°11' E 113°52'1711.7
2015-Feb-28 21:08N 22°12' E 113°34'1525.8
2015-Feb-28 20:33N 22°12' E 113°50'1919.1
2015-Feb-28 19:34N 22°17' E 114°09'3313.5
2015-Feb-28 17:05N 22°12' E 113°34'1529.2
2015-Feb-28 16:34N 22°12' E 113°50'1818.5
2015-Feb-28 15:34N 22°17' E 114°09'3322.3
2015-Feb-28 14:04N 22°12' E 113°34'1733.8
2015-Feb-28 13:33N 22°12' E 113°52'1515.2
2015-Feb-28 12:33N 22°17' E 114°07'3230.4
2015-Feb-28 11:31N 22°12' E 113°34'1617.2
2015-Feb-28 10:34N 22°11' E 113°51'1717.4
2015-Feb-28 09:34N 22°17' E 114°09'3323.0
2015-Feb-28 08:07N 22°12' E 113°34'1629.5
2015-Feb-28 07:34N 22°12' E 113°51'1717.0
2015-Feb-28 06:34N 22°17' E 114°09'3316.3
2015-Feb-28 04:33N 22°12' E 113°34'3333.6
2015-Feb-28 03:33N 22°17' E 114°09'2019.8
2015-Feb-28 02:33N 22°11' E 113°49'1413.9
2015-Feb-28 01:32N 22°12' E 113°34'3334.3
2015-Feb-28 00:33N 22°17' E 114°09'1918.8
2015-Feb-27 23:33N 22°11' E 113°50'1514.5
2015-Feb-27 22:31N 22°12' E 113°34'0 0.0
2015-Feb-27 21:34N 22°12' E 113°34'15 2.4
2015-Feb-27 15:34N 22°12' E 113°49'1919.1
2015-Feb-27 14:33N 22°17' E 114°09'0 0.2
2015-Feb-27 13:34N 22°17' E 114°09'18 9.0
2015-Feb-27 11:33N 22°12' E 113°50'1818.2
2015-Feb-27 10:33N 22°17' E 114°09'1818.2
2015-Feb-27 09:33N 22°11' E 113°51'1615.7
2015-Feb-27 08:33N 22°12' E 113°34'3333.2
2015-Feb-27 07:33N 22°17' E 114°09'1918.8
2015-Feb-27 06:34N 22°11' E 113°50'1 0.4
2015-Feb-27 04:33N 22°11' E 113°51'1716.9
2015-Feb-27 03:34N 22°17' E 114°08'3221.4
2015-Feb-27 02:03N 22°12' E 113°34'1734.5
2015-Feb-27 01:33N 22°12' E 113°52'1615.6
2015-Feb-27 00:33N 22°17' E 114°08'3222.3
2015-Feb-26 23:07N 22°12' E 113°34'0 0.0
2015-Feb-26 22:21N 22°12' E 113°34'0 0.0
2015-Feb-26 21:20N 22°12' E 113°34'0 0.0
2015-Feb-26 19:12N 22°12' E 113°34'0 0.3
2015-Feb-26 18:28N 22°12' E 113°34'3336.6
2015-Feb-26 17:34N 22°17' E 114°09'1717.3
2015-Feb-26 16:33N 22°11' E 113°52'1716.8
2015-Feb-26 15:33N 22°12' E 113°34'3333.3
2015-Feb-26 14:33N 22°17' E 114°09'1717.3
2015-Feb-26 13:33N 22°11' E 113°51'1716.7
2015-Feb-26 12:33N 22°12' E 113°34'3333.3
2015-Feb-26 11:33N 22°17' E 114°09'1818.5
2015-Feb-26 10:33N 22°11' E 113°50'1615.5
2015-Feb-26 09:33N 22°12' E 113°34'3333.0
2015-Feb-26 08:33N 22°17' E 114°09'0 0.0
2015-Feb-26 07:33N 22°17' E 114°09'0 0.0
2015-Feb-26 06:33N 22°17' E 114°09'0 0.0
2015-Feb-26 05:33N 22°17' E 114°09'0 0.1
2015-Feb-26 04:34N 22°17' E 114°09'3322.3
2015-Feb-26 03:04N 22°12' E 113°34'1936.3
2015-Feb-26 02:33N 22°12' E 113°54'1515.2
2015-Feb-26 01:33N 22°17' E 114°09'3333.4
2015-Feb-26 00:33N 22°12' E 113°34'1717.3
2015-Feb-25 23:33N 22°12' E 113°52'1716.6
2015-Feb-25 22:33N 22°17' E 114°09'0 0.0
2015-Feb-25 21:33N 22°17' E 114°09'0 0.0
2015-Feb-25 20:33N 22°17' E 114°09'0 0.0
2015-Feb-25 19:33N 22°17' E 114°09'0 0.0
2015-Feb-25 18:33N 22°17' E 114°09'7 6.7
2015-Feb-25 17:33N 22°14' E 114°03'2711.6
2015-Feb-25 15:13N 22°12' E 113°34'2738.9
2015-Feb-25 14:31N 22°14' E 114°02'7 7.3
2015-Feb-25 13:33N 22°17' E 114°09'2726.8
2015-Feb-25 12:33N 22°11' E 113°41'2 1.2
2015-Feb-25 10:33N 22°11' E 113°39'2928.8
2015-Feb-25 09:33N 22°17' E 114°09'2828.5
2015-Feb-25 08:34N 22°11' E 113°39'5 5.1
2015-Feb-25 07:33N 22°12' E 113°34'3333.7
2015-Feb-25 06:33N 22°17' E 114°09'1412.5
2015-Feb-25 05:27N 22°12' E 113°55'2014.9
2015-Feb-25 04:06N 22°12' E 113°34'3037.7
2015-Feb-25 03:19N 22°17' E 114°05'3 4.5
2015-Feb-25 02:33N 22°17' E 114°09'2625.8
2015-Feb-25 01:33N 22°11' E 113°42'8 7.7
2015-Feb-25 00:33N 22°11' E 113°34'3333.2
2015-Feb-24 23:33N 22°17' E 114°09'0 0.0
2015-Feb-24 22:33N 22°17' E 114°09'0 0.0
2015-Feb-24 21:33N 22°17' E 114°09'0 0.0
2015-Feb-24 20:33N 22°17' E 114°09'0 0.0
2015-Feb-24 19:33N 22°17' E 114°09'0 0.0
2015-Feb-24 18:33N 22°17' E 114°09'1412.2
2015-Feb-24 17:25N 22°12' E 113°55'20 7.0
2015-Feb-24 14:33N 22°11' E 113°34'3333.2
2015-Feb-24 13:33N 22°17' E 114°09'2726.9
2015-Feb-24 12:33N 22°11' E 113°41'7 6.3
2015-Feb-24 11:28N 22°12' E 113°34'7 8.0
2015-Feb-24 10:33N 22°11' E 113°41'2626.3
2015-Feb-24 09:33N 22°17' E 114°09'1412.4
2015-Feb-24 08:25N 22°12' E 113°55'2019.0
2015-Feb-24 07:23N 22°12' E 113°34'3036.2
2015-Feb-24 06:33N 22°17' E 114°06'11 9.2
2015-Feb-24 05:19N 22°12' E 113°55'14 7.7
2015-Feb-24 03:34N 22°12' E 113°40'2727.2
2015-Feb-24 02:33N 22°17' E 114°09'2827.9
2015-Feb-24 01:34N 22°11' E 113°40'1 0.7
2015-Feb-24 00:34N 22°11' E 113°40'2827.9
2015-Feb-23 23:34N 22°17' E 114°09'0 0.0
2015-Feb-23 22:33N 22°17' E 114°09'0 0.0
2015-Feb-23 21:33N 22°17' E 114°09'0 0.0
2015-Feb-23 20:33N 22°17' E 114°09'0 0.0
2015-Feb-23 19:33N 22°17' E 114°09'0 0.0
2015-Feb-23 18:33N 22°17' E 114°09'2726.8
2015-Feb-23 17:33N 22°11' E 113°41'2 1.7
2015-Feb-23 16:33N 22°11' E 113°39'2828.2
2015-Feb-23 15:33N 22°17' E 114°09'2625.8
2015-Feb-23 14:33N 22°11' E 113°42'7 6.5
2015-Feb-23 13:33N 22°11' E 113°35'3232.3
2015-Feb-23 12:33N 22°17' E 114°09'2424.0
2015-Feb-23 11:34N 22°11' E 113°44'10 8.9
2015-Feb-23 10:29N 22°12' E 113°34'0 0.3
2015-Feb-23 09:33N 22°12' E 113°34'3333.3
2015-Feb-23 08:33N 22°17' E 114°09'1817.8
2015-Feb-23 07:33N 22°11' E 113°51'1616.0
2015-Feb-23 06:33N 22°12' E 113°34'3333.2
2015-Feb-23 05:33N 22°17' E 114°09'0 0.1
2015-Feb-23 04:34N 22°17' E 114°09'3331.8
2015-Feb-23 03:31N 22°12' E 113°34'2824.1
2015-Feb-23 02:20N 22°15' E 114°04'3 4.2
2015-Feb-23 01:34N 22°17' E 114°07'3130.1
2015-Feb-23 00:31N 22°12' E 113°34'1818.9
2015-Feb-22 23:33N 22°12' E 113°54'1515.6
2015-Feb-22 22:33N 22°17' E 114°09'0 0.0
2015-Feb-22 21:33N 22°17' E 114°09'0 0.0
2015-Feb-22 20:33N 22°17' E 114°09'0 0.0
2015-Feb-22 19:34N 22°17' E 114°09'0 0.1
2015-Feb-22 18:34N 22°17' E 114°09'3331.6
2015-Feb-22 17:30N 22°12' E 113°34'1717.6
2015-Feb-22 16:34N 22°12' E 113°52'1716.9
2015-Feb-22 15:33N 22°17' E 114°09'3322.5
2015-Feb-22 14:05N 22°12' E 113°34'2035.5
2015-Feb-22 13:31N 22°12' E 113°55'1313.9
2015-Feb-22 12:34N 22°17' E 114°09'3323.7
2015-Feb-22 11:10N 22°12' E 113°34'2635.7
2015-Feb-22 10:26N 22°14' E 114°02'4 5.1
2015-Feb-22 09:34N 22°17' E 114°06'3023.2
2015-Feb-22 08:15N 22°12' E 113°34'2633.0
2015-Feb-22 07:28N 22°14' E 114°02'7 7.6
2015-Feb-22 06:34N 22°17' E 114°08'18 9.2
2015-Feb-22 04:34N 22°12' E 113°49'1919.3
2015-Feb-22 03:33N 22°17' E 114°09'2424.4
2015-Feb-22 02:34N 22°11' E 113°44'8 8.1
2015-Feb-22 01:33N 22°11' E 113°35'1414.3
2015-Feb-22 00:33N 22°12' E 113°50'1918.5
2015-Feb-21 23:33N 22°17' E 114°09'2424.2
2015-Feb-21 22:33N 22°11' E 113°44'5 2.5
2015-Feb-21 20:33N 22°12' E 113°50'1919.0
2015-Feb-21 19:34N 22°17' E 114°09'3310.9
2015-Feb-21 16:31N 22°12' E 113°34'3334.4
2015-Feb-21 15:33N 22°17' E 114°09'2020.4
2015-Feb-21 14:33N 22°11' E 113°48'13 9.3
2015-Feb-21 13:07N 22°12' E 113°34'2638.5
2015-Feb-21 12:27N 22°14' E 114°02'8 8.5
2015-Feb-21 11:34N 22°17' E 114°09'3329.3
2015-Feb-21 10:26N 22°12' E 113°34'2625.8
2015-Feb-21 09:24N 22°14' E 114°02'3 3.6
2015-Feb-21 08:33N 22°16' E 114°05'2924.1
2015-Feb-21 07:21N 22°12' E 113°34'2937.2
2015-Feb-21 06:34N 22°16' E 114°05'4 4.0
2015-Feb-21 05:34N 22°17' E 114°09'20 9.9
2015-Feb-21 03:34N 22°12' E 113°49'2019.9
2015-Feb-21 02:33N 22°17' E 114°09'3231.6
2015-Feb-21 01:33N 22°11' E 113°35'7 7.1
2015-Feb-21 00:33N 22°12' E 113°43'2524.8
2015-Feb-20 23:33N 22°17' E 114°09'0 0.0
2015-Feb-20 22:33N 22°17' E 114°09'0 0.0
2015-Feb-20 21:33N 22°17' E 114°09'0 0.0
2015-Feb-20 20:33N 22°17' E 114°09'0 0.1
2015-Feb-20 19:33N 22°17' E 114°09'0 0.1
2015-Feb-20 18:33N 22°17' E 114°09'1717.1
2015-Feb-20 17:32N 22°11' E 113°52'1716.9
2015-Feb-20 16:33N 22°12' E 113°34'3333.6
2015-Feb-20 15:33N 22°17' E 114°09'2120.6
2015-Feb-20 14:34N 22°11' E 113°48'13 9.8
2015-Feb-20 13:12N 22°12' E 113°34'  

Dump ship's entire track history